createdAt,value
2023-03-20T00:02:26.395Z,45.17
2023-03-20T00:04:55.015Z,43.73
2023-03-20T00:07:23.504Z,44.87
2023-03-20T00:09:51.819Z,42.47
2023-03-20T00:12:25.844Z,47.37
2023-03-20T00:14:55.652Z,45.87
2023-03-20T00:17:24.342Z,42.40
2023-03-20T00:19:52.622Z,38.37
2023-03-20T00:22:22.989Z,38.17
2023-03-20T00:24:51.766Z,44.83
2023-03-20T00:27:20.131Z,45.53
2023-03-20T00:29:48.857Z,46.83
2023-03-20T00:32:24.617Z,39.70
2023-03-20T00:34:54.427Z,39.80
2023-03-20T00:37:23.854Z,39.03
2023-03-20T00:39:52.620Z,41.70
2023-03-20T00:42:23.094Z,39.97
2023-03-20T00:44:58.163Z,39.87
2023-03-20T00:47:28.945Z,37.33
2023-03-20T00:50:01.887Z,39.07
2023-03-20T00:52:30.150Z,39.00
2023-03-20T00:54:58.649Z,42.50
2023-03-20T00:57:30.552Z,45.80
2023-03-20T01:00:02.753Z,41.20
2023-03-20T01:02:33.833Z,45.97
2023-03-20T01:05:03.732Z,45.33
2023-03-20T01:07:35.706Z,46.40
2023-03-20T01:10:04.973Z,48.30
2023-03-20T01:12:33.329Z,54.23
2023-03-20T01:15:01.725Z,53.27
2023-03-20T01:17:36.317Z,53.90
2023-03-20T01:20:11.913Z,54.50
2023-03-20T01:22:40.706Z,53.33
2023-03-20T01:25:10.404Z,53.77
2023-03-20T01:27:38.791Z,55.77
2023-03-20T01:30:17.971Z,55.50
2023-03-20T01:32:48.403Z,53.70
2023-03-20T01:35:19.197Z,52.17
2023-03-20T01:37:48.282Z,48.07
2023-03-20T01:40:46.722Z,49.97
2023-03-20T01:43:19.645Z,48.43
2023-03-20T01:46:02.287Z,46.70
2023-03-20T01:49:00.225Z,43.53
2023-03-20T01:51:30.928Z,45.23
2023-03-20T01:54:06.748Z,43.73
2023-03-20T01:56:41.747Z,45.10
2023-03-20T01:59:15.729Z,44.07
2023-03-20T02:01:45.660Z,40.07
2023-03-20T02:04:28.597Z,42.07
2023-03-20T02:07:05.018Z,38.43
2023-03-20T02:09:42.644Z,36.13
2023-03-20T02:12:16.863Z,36.13
2023-03-20T02:14:46.953Z,35.97
2023-03-20T02:17:25.278Z,30.83
2023-03-20T02:20:12.714Z,29.60
2023-03-20T02:23:31.340Z,23.93
2023-03-20T02:26:31.251Z,23.00
2023-03-20T02:29:32.558Z,19.70
2023-03-20T02:32:36.503Z,18.57
2023-03-20T02:35:37.985Z,20.60
2023-03-20T02:38:31.866Z,17.90
2023-03-20T02:41:19.175Z,15.97
2023-03-20T02:43:55.339Z,18.73
2023-03-20T02:46:33.813Z,16.67
2023-03-20T02:49:11.873Z,16.10
2023-03-20T02:51:42.902Z,17.07
2023-03-20T02:54:23.226Z,18.67
2023-03-20T02:57:02.606Z,16.53
2023-03-20T02:59:37.777Z,18.13
2023-03-20T03:02:10.012Z,19.17
2023-03-20T03:04:43.978Z,17.07
2023-03-20T03:07:17.440Z,18.10
2023-03-20T03:09:53.828Z,16.97
2023-03-20T03:12:27.494Z,18.03
2023-03-20T03:14:58.705Z,18.27
2023-03-20T03:17:31.346Z,16.83
2023-03-20T03:20:05.731Z,14.97
2023-03-20T03:22:36.285Z,17.30
2023-03-20T03:25:04.930Z,14.07
2023-03-20T03:27:41.924Z,15.13
2023-03-20T03:30:16.887Z,13.53
2023-03-20T03:32:48.333Z,14.20
2023-03-20T03:35:19.934Z,13.27
2023-03-20T03:37:58.831Z,13.10
2023-03-20T03:40:35.586Z,14.13
2023-03-20T03:43:11.815Z,12.53
2023-03-20T03:45:45.574Z,12.40
2023-03-20T03:48:19.241Z,12.90
2023-03-20T03:50:52.734Z,11.17
2023-03-20T03:53:24.108Z,12.60
2023-03-20T03:55:56.756Z,11.47
2023-03-20T03:58:30.591Z,11.53
2023-03-20T04:01:01.532Z,11.73
2023-03-20T04:03:35.221Z,9.93
2023-03-20T04:06:05.988Z,11.47
2023-03-20T04:08:36.067Z,11.70
2023-03-20T04:11:04.847Z,10.10
2023-03-20T04:13:34.859Z,11.80
2023-03-20T04:16:03.156Z,9.10
2023-03-20T04:18:32.097Z,10.80
2023-03-20T04:21:00.255Z,9.80
2023-03-20T04:23:29.408Z,7.97
2023-03-20T04:26:02.408Z,9.37
2023-03-20T04:28:36.318Z,7.30
2023-03-20T04:31:16.798Z,10.37
2023-03-20T04:34:05.576Z,9.77
2023-03-20T04:36:58.175Z,9.00
2023-03-20T04:39:37.683Z,10.13
2023-03-20T04:42:08.629Z,9.47
2023-03-20T04:44:38.268Z,9.67
2023-03-20T04:47:07.164Z,10.60
2023-03-20T04:49:38.532Z,8.53
2023-03-20T04:52:07.323Z,10.27
2023-03-20T04:54:44.136Z,9.63
2023-03-20T04:57:13.263Z,8.97
2023-03-20T04:59:42.856Z,9.43
2023-03-20T05:02:14.853Z,9.03
2023-03-20T05:04:43.346Z,12.00
2023-03-20T05:07:12.091Z,8.87
2023-03-20T05:09:53.525Z,10.80
2023-03-20T05:12:22.887Z,12.07
2023-03-20T05:15:25.282Z,8.40
2023-03-20T05:18:12.385Z,10.23
2023-03-20T05:21:09.436Z,10.47
2023-03-20T05:24:07.520Z,13.93
2023-03-20T05:26:55.607Z,11.73
2023-03-20T05:29:26.657Z,11.63
2023-03-20T05:32:12.740Z,10.10
2023-03-20T05:35:10.074Z,12.07
2023-03-20T05:38:05.137Z,10.57
2023-03-20T05:40:44.044Z,12.87
2023-03-20T05:43:31.979Z,12.70
2023-03-20T05:46:11.237Z,11.70
2023-03-20T05:48:59.361Z,13.17
2023-03-20T05:51:45.848Z,11.77
2023-03-20T05:54:32.066Z,10.43
2023-03-20T05:57:23.608Z,12.50
2023-03-20T05:59:52.143Z,10.07
2023-03-20T06:02:40.683Z,12.40
2023-03-20T06:05:37.380Z,12.00
2023-03-20T06:08:09.343Z,10.60
2023-03-20T06:10:37.847Z,12.00
2023-03-20T06:13:06.007Z,12.83
2023-03-20T06:15:35.483Z,10.53
2023-03-20T06:18:17.231Z,10.03
2023-03-20T06:20:48.333Z,11.23
2023-03-20T06:23:23.476Z,11.30
2023-03-20T06:25:52.702Z,13.27
2023-03-20T06:28:22.346Z,11.83
2023-03-20T06:30:58.366Z,11.43
2023-03-20T06:33:26.757Z,11.47
2023-03-20T06:36:04.431Z,11.47
2023-03-20T06:38:33.918Z,11.57
2023-03-20T06:41:08.515Z,13.43
2023-03-20T06:43:39.641Z,12.37
2023-03-20T06:46:09.171Z,11.33
2023-03-20T06:48:38.304Z,12.10
2023-03-20T06:51:14.668Z,10.73
2023-03-20T06:53:51.628Z,11.20
2023-03-20T06:56:23.081Z,10.50
2023-03-20T06:58:51.845Z,11.83
2023-03-20T07:01:20.712Z,10.20
2023-03-20T07:03:49.987Z,8.53
2023-03-20T07:06:25.334Z,11.77
2023-03-20T07:08:53.933Z,9.13
2023-03-20T07:11:25.300Z,8.83
2023-03-20T07:13:57.532Z,10.87
2023-03-20T07:16:37.004Z,9.60
2023-03-20T07:19:05.596Z,8.57
2023-03-20T07:21:38.112Z,8.70
2023-03-20T07:24:08.271Z,10.47
2023-03-20T07:26:46.440Z,9.57
2023-03-20T07:29:18.712Z,9.70
2023-03-20T07:31:50.570Z,9.53
2023-03-20T07:34:26.061Z,10.03
2023-03-20T07:36:58.546Z,9.57
2023-03-20T07:39:29.158Z,9.50
2023-03-20T07:42:16.781Z,9.87
2023-03-20T07:44:56.062Z,11.60
2023-03-20T07:47:26.172Z,8.40
2023-03-20T07:49:56.199Z,8.83
2023-03-20T07:52:29.188Z,10.70
2023-03-20T07:54:59.605Z,10.33
2023-03-20T07:57:28.374Z,9.93
2023-03-20T08:00:09.250Z,10.93
2023-03-20T08:02:40.832Z,8.63
2023-03-20T08:05:13.544Z,8.87
2023-03-20T08:07:46.403Z,9.07
2023-03-20T08:10:15.478Z,10.90
2023-03-20T08:12:45.721Z,10.60
2023-03-20T08:15:15.885Z,11.93
2023-03-20T08:17:45.878Z,12.17
2023-03-20T08:20:20.609Z,10.40
2023-03-20T08:22:50.892Z,11.37
2023-03-20T08:25:19.827Z,10.57
2023-03-20T08:27:53.331Z,11.07
2023-03-20T08:30:30.286Z,12.37
2023-03-20T08:33:05.126Z,11.93
2023-03-20T08:35:40.244Z,15.27
2023-03-20T08:38:30.955Z,9.87
2023-03-20T08:41:04.363Z,12.03
2023-03-20T08:43:57.201Z,11.20
2023-03-20T08:46:27.219Z,13.93
2023-03-20T08:49:06.133Z,11.13
2023-03-20T08:51:42.716Z,12.93
2023-03-20T08:54:17.633Z,11.27
2023-03-20T08:56:47.518Z,12.50
2023-03-20T08:59:16.458Z,12.23
2023-03-20T09:01:49.786Z,11.13
2023-03-20T09:04:21.859Z,11.40
2023-03-20T09:06:53.344Z,13.37
2023-03-20T09:09:29.317Z,11.73
2023-03-20T09:11:58.575Z,14.10
2023-03-20T09:14:27.579Z,16.83
2023-03-20T09:16:56.104Z,11.77
2023-03-20T09:19:24.529Z,15.70
2023-03-20T09:21:54.261Z,11.97
2023-03-20T09:24:23.931Z,13.50
2023-03-20T09:26:52.448Z,14.10
2023-03-20T09:29:22.930Z,16.07
2023-03-20T09:31:57.005Z,12.63
2023-03-20T09:34:29.504Z,15.23
2023-03-20T09:37:10.502Z,15.13
2023-03-20T09:39:41.650Z,13.63
2023-03-20T09:42:19.904Z,13.17
2023-03-20T09:44:56.875Z,14.43
2023-03-20T09:47:39.414Z,15.80
2023-03-20T09:50:22.486Z,12.20
2023-03-20T09:52:59.972Z,12.70
2023-03-20T09:55:36.993Z,15.63
2023-03-20T09:58:13.705Z,13.47
2023-03-20T10:00:50.471Z,13.83
2023-03-20T10:03:22.245Z,13.00
2023-03-20T10:06:01.545Z,14.43
2023-03-20T10:08:36.536Z,11.93
2023-03-20T10:11:22.833Z,15.33
2023-03-20T10:14:04.447Z,10.87
2023-03-20T10:16:47.397Z,13.53
2023-03-20T10:19:26.043Z,11.83
2023-03-20T10:22:02.411Z,10.27
2023-03-20T10:24:44.839Z,13.63
2023-03-20T10:27:27.612Z,12.47
2023-03-20T10:30:16.170Z,11.30
2023-03-20T10:32:54.778Z,13.43
2023-03-20T10:35:30.275Z,13.57
2023-03-20T10:38:15.806Z,10.60
2023-03-20T10:40:45.492Z,11.73
2023-03-20T10:43:21.426Z,11.33
2023-03-20T10:45:56.772Z,10.40
2023-03-20T10:48:31.293Z,10.23
2023-03-20T10:51:03.495Z,10.00
2023-03-20T10:53:36.180Z,13.43
2023-03-20T10:56:11.976Z,11.03
2023-03-20T10:58:46.359Z,10.67
2023-03-20T11:01:21.315Z,12.17
2023-03-20T11:03:49.689Z,11.40
2023-03-20T11:06:27.917Z,12.87
2023-03-20T11:08:56.507Z,10.80
2023-03-20T11:11:28.279Z,11.47
2023-03-20T11:13:58.985Z,11.03
2023-03-20T11:16:37.023Z,9.87
2023-03-20T11:19:19.313Z,9.10
2023-03-20T11:21:49.674Z,11.03
2023-03-20T11:24:28.904Z,12.00
2023-03-20T11:27:07.241Z,9.53
2023-03-20T11:29:37.463Z,10.67
2023-03-20T11:32:09.285Z,9.97
2023-03-20T11:34:41.041Z,9.30
2023-03-20T11:37:23.720Z,8.60
2023-03-20T11:40:00.231Z,9.47
2023-03-20T11:42:30.895Z,12.67
2023-03-20T11:45:02.779Z,10.70
2023-03-20T11:47:34.733Z,9.90
2023-03-20T11:50:06.389Z,8.80
2023-03-20T11:52:36.621Z,9.47
2023-03-20T11:55:21.360Z,8.53
2023-03-20T11:57:50.807Z,14.17
2023-03-20T12:00:23.145Z,9.70
2023-03-20T12:02:51.751Z,10.37
2023-03-20T12:05:32.288Z,8.57
2023-03-20T12:08:04.729Z,11.10
2023-03-20T12:10:37.644Z,8.80
2023-03-20T12:13:12.951Z,8.33
2023-03-20T12:15:47.668Z,9.00
2023-03-20T12:18:23.502Z,7.47
2023-03-20T12:21:03.964Z,8.53
2023-03-20T12:23:35.938Z,9.53
2023-03-20T12:26:07.204Z,8.40
2023-03-20T12:28:42.552Z,7.63
2023-03-20T12:31:23.220Z,10.83
2023-03-20T12:33:55.965Z,7.43
2023-03-20T12:36:32.333Z,6.73
2023-03-20T12:39:02.595Z,7.80
2023-03-20T12:41:34.231Z,9.07
2023-03-20T12:44:27.984Z,9.77
2023-03-20T12:47:10.842Z,8.30
2023-03-20T12:49:51.797Z,9.10
2023-03-20T12:52:28.365Z,6.27
2023-03-20T12:55:21.767Z,6.87
2023-03-20T12:58:01.813Z,8.67
2023-03-20T13:00:36.034Z,8.70
2023-03-20T13:03:18.945Z,8.20
2023-03-20T13:05:53.689Z,6.90
2023-03-20T13:08:38.504Z,8.83
2023-03-20T13:11:14.880Z,6.13
2023-03-20T13:13:53.425Z,7.73
2023-03-20T13:16:32.652Z,5.50
2023-03-20T13:19:08.370Z,7.43
2023-03-20T13:21:43.460Z,7.67
2023-03-20T13:24:28.232Z,7.77
2023-03-20T13:27:04.728Z,8.53
2023-03-20T13:29:41.315Z,6.33
2023-03-20T13:32:19.818Z,7.03
2023-03-20T13:35:02.802Z,6.93
2023-03-20T13:37:36.301Z,7.67
2023-03-20T13:40:14.167Z,7.97
2023-03-20T13:42:48.585Z,6.03
2023-03-20T13:45:28.851Z,7.63
2023-03-20T13:47:59.267Z,7.70
2023-03-20T13:50:39.170Z,8.07
2023-03-20T13:53:14.521Z,6.43
2023-03-20T13:55:50.406Z,6.90
2023-03-20T13:58:35.280Z,7.77
2023-03-20T14:01:11.557Z,8.03
2023-03-20T14:03:45.429Z,9.27
2023-03-20T14:06:50.876Z,7.77
2023-03-20T14:09:30.821Z,8.07
2023-03-20T14:12:02.906Z,8.10
2023-03-20T14:14:34.714Z,8.43
2023-03-20T14:17:19.678Z,9.33
2023-03-20T14:19:48.737Z,7.77
2023-03-20T14:22:20.983Z,8.20
2023-03-20T14:24:57.048Z,10.03
2023-03-20T14:27:43.212Z,8.60
2023-03-20T14:30:41.495Z,7.10
2023-03-20T14:33:26.834Z,8.13
2023-03-20T14:36:13.640Z,7.40
2023-03-20T14:38:55.280Z,6.83
2023-03-20T14:41:31.468Z,8.70
2023-03-20T14:44:09.544Z,7.53
2023-03-20T14:46:49.493Z,7.00
2023-03-20T14:49:51.488Z,9.27
2023-03-20T14:52:38.951Z,8.73
2023-03-20T14:55:32.088Z,10.70
2023-03-20T14:58:04.720Z,11.40
2023-03-20T15:00:37.501Z,13.00
2023-03-20T15:03:10.780Z,9.63
2023-03-20T15:05:40.997Z,10.13
2023-03-20T15:08:14.344Z,9.60
2023-03-20T15:10:50.481Z,8.80
2023-03-20T15:13:19.063Z,10.47
2023-03-20T15:15:56.143Z,12.37
2023-03-20T15:18:26.484Z,11.47
2023-03-20T15:20:56.421Z,12.67
2023-03-20T15:23:26.210Z,9.87
2023-03-20T15:25:55.890Z,12.03
2023-03-20T15:28:26.395Z,12.40
2023-03-20T15:30:58.840Z,13.80
2023-03-20T15:33:29.863Z,15.47
2023-03-20T15:35:58.499Z,14.10
2023-03-20T15:38:34.043Z,11.40
2023-03-20T15:41:05.704Z,11.13
2023-03-20T15:43:35.166Z,12.67
2023-03-20T15:46:20.684Z,12.63
2023-03-20T15:48:49.709Z,11.77
2023-03-20T15:51:19.270Z,11.83
2023-03-20T15:53:49.629Z,10.47
2023-03-20T15:56:21.025Z,12.10
2023-03-20T15:58:52.375Z,12.47
2023-03-20T16:01:22.865Z,11.67
2023-03-20T16:03:51.949Z,12.23
2023-03-20T16:06:22.352Z,12.80
2023-03-20T16:08:59.089Z,12.70
2023-03-20T16:11:38.034Z,12.80
2023-03-20T16:14:07.793Z,17.67
2023-03-20T16:16:37.602Z,12.33
2023-03-20T16:19:07.248Z,11.43
2023-03-20T16:21:39.218Z,11.90
2023-03-20T16:24:11.353Z,13.17
2023-03-20T16:26:45.122Z,12.87
2023-03-20T16:29:15.728Z,15.13
2023-03-20T16:31:49.531Z,13.47
2023-03-20T16:34:22.113Z,12.67
2023-03-20T16:36:54.373Z,13.77
2023-03-20T16:39:25.565Z,14.83
2023-03-20T16:42:12.193Z,13.47
2023-03-20T16:44:42.616Z,14.57
2023-03-20T16:47:20.235Z,15.13
2023-03-20T16:50:08.278Z,15.20
2023-03-20T16:52:39.860Z,12.57
2023-03-20T16:55:15.547Z,15.63
2023-03-20T16:57:48.725Z,14.37
2023-03-20T17:00:42.760Z,14.80
2023-03-20T17:03:16.484Z,15.03
2023-03-20T17:05:55.886Z,11.60
2023-03-20T17:08:29.457Z,14.93
2023-03-20T17:11:00.903Z,13.70
2023-03-20T17:13:30.323Z,16.57
2023-03-20T17:15:59.543Z,14.30
2023-03-20T17:18:29.019Z,13.93
2023-03-20T17:20:57.058Z,13.73
2023-03-20T17:23:25.069Z,12.20
2023-03-20T17:25:54.007Z,13.10
2023-03-20T17:28:24.913Z,13.53
2023-03-20T17:30:54.361Z,13.20
2023-03-20T17:33:22.520Z,12.13
2023-03-20T17:35:50.918Z,12.53
2023-03-20T17:38:21.820Z,11.07
2023-03-20T17:40:51.412Z,12.97
2023-03-20T17:43:20.646Z,11.43
2023-03-20T17:45:49.095Z,11.50
2023-03-20T17:48:21.492Z,9.90
2023-03-20T17:50:51.361Z,12.47
2023-03-20T17:53:20.800Z,12.10
2023-03-20T17:55:48.924Z,11.33
2023-03-20T17:58:18.906Z,11.80
2023-03-20T18:00:46.991Z,10.70
2023-03-20T18:03:15.390Z,11.40
2023-03-20T18:05:45.101Z,11.87
2023-03-20T18:08:21.006Z,13.87
2023-03-20T18:10:50.288Z,10.97
2023-03-20T18:13:20.957Z,11.70
2023-03-20T18:15:49.655Z,11.73
2023-03-20T18:18:18.075Z,15.47
2023-03-20T18:20:47.993Z,10.10
2023-03-20T18:23:16.523Z,11.27
2023-03-20T18:25:44.581Z,10.83
2023-03-20T18:28:20.472Z,15.60
2023-03-20T18:30:50.880Z,13.40
2023-03-20T18:33:19.422Z,11.47
2023-03-20T18:35:48.986Z,12.63
2023-03-20T18:38:17.129Z,12.87
2023-03-20T18:40:47.213Z,12.60
2023-03-20T18:43:15.430Z,16.43
2023-03-20T18:45:43.492Z,13.27
2023-03-20T18:48:18.113Z,12.97
2023-03-20T18:50:50.724Z,12.73
2023-03-20T18:53:20.443Z,17.03
2023-03-20T18:55:48.489Z,14.00
2023-03-20T18:58:22.857Z,13.53
2023-03-20T19:00:51.356Z,15.80
2023-03-20T19:03:23.686Z,13.03
2023-03-20T19:05:52.664Z,18.57
2023-03-20T19:08:22.462Z,15.27
2023-03-20T19:10:51.375Z,16.37
2023-03-20T19:13:21.316Z,15.23
2023-03-20T19:15:49.516Z,15.47
2023-03-20T19:18:19.522Z,16.43
2023-03-20T19:20:49.318Z,14.73
2023-03-20T19:23:19.566Z,18.27
2023-03-20T19:25:50.679Z,15.40
2023-03-20T19:28:21.949Z,17.47
2023-03-20T19:30:52.632Z,16.70
2023-03-20T19:33:21.374Z,21.97
2023-03-20T19:36:05.358Z,16.03
2023-03-20T19:38:34.552Z,16.57
2023-03-20T19:41:04.449Z,19.83
2023-03-20T19:43:32.560Z,17.03
2023-03-20T19:46:00.959Z,18.57
2023-03-20T19:48:49.686Z,17.37
2023-03-20T19:51:21.198Z,21.17
2023-03-20T19:53:50.173Z,18.97
2023-03-20T19:56:21.629Z,17.03
2023-03-20T19:58:49.797Z,19.87
2023-03-20T20:01:20.234Z,19.10
2023-03-20T20:03:49.593Z,18.30
2023-03-20T20:06:21.213Z,19.33
2023-03-20T20:08:49.839Z,15.83
2023-03-20T20:11:19.923Z,18.83
2023-03-20T20:14:05.778Z,20.60
2023-03-20T20:16:36.189Z,17.60
2023-03-20T20:19:05.216Z,20.20
2023-03-20T20:24:22.153Z,19.17
2023-03-20T20:26:59.703Z,17.47
2023-03-20T20:29:35.513Z,16.30
2023-03-20T20:32:03.677Z,18.70
2023-03-20T20:38:02.852Z,17.23
2023-03-20T20:40:09.437Z,18.00
2023-03-20T20:42:38.898Z,20.73
2023-03-20T20:45:09.166Z,17.90
2023-03-20T20:47:37.244Z,15.60
2023-03-20T20:50:08.628Z,18.17
2023-03-20T20:52:39.180Z,17.20
2023-03-20T20:55:22.121Z,16.27
2023-03-20T20:57:52.761Z,17.60
2023-03-20T21:00:27.376Z,17.27
2023-03-20T21:02:59.763Z,16.97
2023-03-20T21:05:28.214Z,14.93
2023-03-20T21:07:57.760Z,17.77
2023-03-20T21:10:25.884Z,18.60
2023-03-20T21:12:59.494Z,17.57
2023-03-20T21:15:28.386Z,16.63
2023-03-20T21:18:03.617Z,16.57
2023-03-20T21:20:32.247Z,17.50
2023-03-20T21:23:00.671Z,17.67
2023-03-20T21:25:39.708Z,17.83
2023-03-20T21:28:10.665Z,18.00
2023-03-20T21:30:46.771Z,18.87
2023-03-20T21:33:25.076Z,18.70
2023-03-20T21:35:54.289Z,18.77
2023-03-20T21:38:58.453Z,18.93
2023-03-20T21:41:11.202Z,18.93
2023-03-20T21:43:41.047Z,20.23
2023-03-20T21:55:12.890Z,19.47
2023-03-20T21:58:08.512Z,19.03
2023-03-20T22:01:11.071Z,20.53
2023-03-20T22:03:09.986Z,21.03
2023-03-20T22:09:20.179Z,20.57
2023-03-20T22:28:49.864Z,20.83
2023-03-20T22:31:38.434Z,19.80
2023-03-20T22:37:29.519Z,20.67
2023-03-20T22:45:03.265Z,21.73
2023-03-20T22:47:32.315Z,20.93
2023-03-20T22:50:02.503Z,21.73
2023-03-20T22:52:49.598Z,22.17
2023-03-20T22:55:18.658Z,21.80
2023-03-20T22:58:03.783Z,22.33
2023-03-20T23:00:34.629Z,23.33
2023-03-20T23:03:15.635Z,23.73
2023-03-20T23:05:52.351Z,23.27
2023-03-20T23:08:21.094Z,22.13
2023-03-20T23:10:51.154Z,23.13
2023-03-20T23:13:20.388Z,24.77
2023-03-20T23:15:50.609Z,25.17
2023-03-20T23:18:18.753Z,23.23
2023-03-20T23:20:46.826Z,22.87
2023-03-20T23:23:16.419Z,25.10
2023-03-20T23:25:44.486Z,24.87
2023-03-20T23:28:12.536Z,24.33
2023-03-20T23:30:56.791Z,25.13
2023-03-20T23:33:28.616Z,24.53
2023-03-20T23:36:12.454Z,24.67
2023-03-20T23:38:47.496Z,23.77
2023-03-20T23:41:15.800Z,24.03
2023-03-20T23:43:44.339Z,24.50
2023-03-20T23:46:12.602Z,23.87
2023-03-20T23:48:40.685Z,24.57
2023-03-20T23:51:09.388Z,25.23
2023-03-20T23:53:37.508Z,23.83
2023-03-20T23:56:07.990Z,24.97
2023-03-20T23:58:39.454Z,25.53
